Time;durP1;ratioP1;P1;durP2;ratioP2;P2;SDS_P1;SDS_P2;PMS_P1;PMS_P2;Temp;Humidity;BMP_temperature;BMP_pressure;BME280_temperature;BME280_humidity;BME280_pressure;Samples;Min_cycle;Max_cycle;Signal;HPM_P1;HPM_P2
2022/04/01 00:00:43;;;;;;;44.28;41.70;;;;;;;;;;5095455;28;20264;-85
2022/04/01 00:03:11;;;;;;;49.45;46.28;;;;;;;;;;5095701;28;20195;-86
2022/04/01 00:05:41;;;;;;;45.63;43.22;;;;;;;;;;5095443;28;20196;-86
2022/04/01 00:08:09;;;;;;;44.08;41.80;;;;;;;;;;5094858;28;20301;-86
2022/04/01 00:10:36;;;;;;;45.80;43.22;;;;;;;;;;5095270;28;20638;-87
2022/04/01 00:13:04;;;;;;;46.65;44.15;;;;;;;;;;5095116;28;20546;-85
2022/04/01 00:15:32;;;;;;;46.30;43.58;;;;;;;;;;5095252;28;20184;-85
2022/04/01 00:18:00;;;;;;;46.03;43.53;;;;;;;;;;5095140;28;20187;-86
2022/04/01 00:20:28;;;;;;;45.80;43.30;;;;;;;;;;5095302;28;20199;-86
2022/04/01 00:22:57;;;;;;;45.95;43.35;;;;;;;;;;5094401;28;20203;-86
2022/04/01 00:25:25;;;;;;;45.72;43.33;;;;;;;;;;5094933;28;20238;-83
2022/04/01 00:27:53;;;;;;;46.95;44.47;;;;;;;;;;5094828;28;20183;-84
2022/04/01 00:30:21;;;;;;;44.10;41.72;;;;;;;;;;5095022;28;20192;-83
2022/04/01 00:32:48;;;;;;;48.50;45.78;;;;;;;;;;5094745;28;20223;-83
2022/04/01 00:35:16;;;;;;;48.00;45.33;;;;;;;;;;5076676;28;20203;-84
2022/04/01 00:37:43;;;;;;;46.75;44.13;;;;;;;;;;5095204;28;20199;-84
2022/04/01 00:40:13;;;;;;;46.67;44.20;;;;;;;;;;5073616;28;20274;-84
2022/04/01 00:42:41;;;;;;;49.22;46.35;;;;;;;;;;5075041;28;20334;-84
2022/04/01 00:45:10;;;;;;;47.70;45.10;;;;;;;;;;5074025;28;20235;-84
2022/04/01 00:47:37;;;;;;;43.47;41.08;;;;;;;;;;5074531;28;20276;-84
2022/04/01 00:50:05;;;;;;;45.58;43.05;;;;;;;;;;5074255;28;20188;-84
2022/04/01 00:52:33;;;;;;;46.65;44.05;;;;;;;;;;5074215;28;20247;-84
2022/04/01 00:55:02;;;;;;;44.17;41.97;;;;;;;;;;5074529;28;20188;-84
2022/04/01 00:57:31;;;;;;;46.45;43.83;;;;;;;;;;5074434;28;20188;-84
2022/04/01 00:59:59;;;;;;;47.60;44.90;;;;;;;;;;5074064;28;20196;-83
2022/04/01 01:02:26;;;;;;;45.53;43.13;;;;;;;;;;5073690;28;20188;-82
2022/04/01 01:04:54;;;;;;;50.50;47.80;;;;;;;;;;5073948;28;20204;-83
2022/04/01 01:07:22;;;;;;;46.42;43.95;;;;;;;;;;5074035;28;20214;-83
2022/04/01 01:09:49;;;;;;;46.65;44.13;;;;;;;;;;5073839;28;20203;-83
2022/04/01 01:12:17;;;;;;;45.53;43.10;;;;;;;;;;5073728;28;20216;-84
2022/04/01 01:14:46;;;;;;;48.47;45.88;;;;;;;;;;5072904;28;20542;-84
2022/04/01 01:17:14;;;;;;;46.03;43.50;;;;;;;;;;5073791;28;20254;-84
2022/04/01 01:19:45;;;;;;;48.05;45.55;;;;;;;;;;5073608;28;20191;-83
2022/04/01 01:22:13;;;;;;;52.28;49.47;;;;;;;;;;5073589;28;20192;-83
2022/04/01 01:24:43;;;;;;;49.95;47.30;;;;;;;;;;5073260;28;20282;-84
2022/04/01 01:27:11;;;;;;;46.67;44.38;;;;;;;;;;5073618;28;20649;-82
2022/04/01 01:29:39;;;;;;;50.38;47.80;;;;;;;;;;5073315;28;20207;-83
2022/04/01 01:32:07;;;;;;;50.63;48.03;;;;;;;;;;5073497;28;20569;-84
2022/04/01 01:34:35;;;;;;;45.70;43.50;;;;;;;;;;5073393;28;20192;-84
2022/04/01 01:37:03;;;;;;;45.60;43.28;;;;;;;;;;5073902;28;20188;-84
2022/04/01 01:39:31;;;;;;;46.75;44.30;;;;;;;;;;5072350;28;20585;-85
2022/04/01 01:41:59;;;;;;;51.47;48.47;;;;;;;;;;5073715;28;20634;-85
2022/04/01 01:44:27;;;;;;;48.95;46.50;;;;;;;;;;5074026;28;20194;-85
2022/04/01 01:46:55;;;;;;;47.90;45.30;;;;;;;;;;5073803;28;20657;-84
2022/04/01 01:49:22;;;;;;;48.50;45.80;;;;;;;;;;5073960;28;20537;-84
2022/04/01 01:54:45;;;;;;;50.42;47.75;;;;;;;;;;5073743;28;20219;-85
2022/04/01 01:57:15;;;;;;;50.67;48.05;;;;;;;;;;5074022;28;20218;-85
2022/04/01 01:59:42;;;;;;;51.75;48.90;;;;;;;;;;5073813;28;20207;-85
2022/04/01 02:02:10;;;;;;;51.78;48.83;;;;;;;;;;5074051;28;20550;-85
2022/04/01 02:04:38;;;;;;;51.15;48.35;;;;;;;;;;5073848;28;20245;-85
2022/04/01 02:07:06;;;;;;;56.22;53.33;;;;;;;;;;5073908;28;20188;-85
2022/04/01 02:09:34;;;;;;;54.58;51.88;;;;;;;;;;5073672;28;20188;-85
2022/04/01 02:12:02;;;;;;;52.55;50.03;;;;;;;;;;5073625;28;20200;-85
2022/04/01 02:14:31;;;;;;;59.08;56.10;;;;;;;;;;5073591;28;20203;-85
2022/04/01 02:16:59;;;;;;;53.03;50.33;;;;;;;;;;5073379;28;20277;-84
2022/04/01 02:19:26;;;;;;;57.78;54.60;;;;;;;;;;5073849;28;20200;-85
2022/04/01 02:21:54;;;;;;;51.60;48.80;;;;;;;;;;5073814;28;20612;-85
2022/04/01 02:24:22;;;;;;;47.85;45.17;;;;;;;;;;5073552;28;20201;-85
2022/04/01 02:26:50;;;;;;;45.08;42.58;;;;;;;;;;5073695;28;20291;-85
2022/04/01 02:29:20;;;;;;;38.08;36.08;;;;;;;;;;5073352;28;20226;-86
2022/04/01 02:31:49;;;;;;;42.22;39.92;;;;;;;;;;5071933;28;20204;-85
2022/04/01 02:34:16;;;;;;;50.72;47.85;;;;;;;;;;5072839;28;20228;-85
2022/04/01 02:36:44;;;;;;;45.40;43.10;;;;;;;;;;5073102;28;20195;-86
2022/04/01 02:39:11;;;;;;;49.38;46.88;;;;;;;;;;5075930;28;20247;-85
2022/04/01 02:41:39;;;;;;;47.35;44.75;;;;;;;;;;5093760;28;20223;-86
2022/04/01 02:44:11;;;;;;;45.00;42.88;;;;;;;;;;5093195;28;20245;-85
2022/04/01 02:46:39;;;;;;;46.55;44.25;;;;;;;;;;5094244;28;20275;-86
2022/04/01 02:49:09;;;;;;;44.70;42.60;;;;;;;;;;5097771;28;20192;-86
2022/04/01 02:51:37;;;;;;;44.20;42.05;;;;;;;;;;5097351;28;20199;-86
2022/04/01 02:54:06;;;;;;;46.42;44.13;;;;;;;;;;5097387;28;20218;-85
2022/04/01 02:56:34;;;;;;;38.17;36.17;;;;;;;;;;5078934;28;20199;-86
2022/04/01 02:59:01;;;;;;;40.15;38.00;;;;;;;;;;5097045;28;20192;-85
2022/04/01 03:01:29;;;;;;;41.33;39.22;;;;;;;;;;5078811;28;20204;-86
2022/04/01 03:03:57;;;;;;;38.95;37.05;;;;;;;;;;5096593;28;20634;-83
2022/04/01 03:06:25;;;;;;;40.53;38.60;;;;;;;;;;5079016;28;20198;-85
2022/04/01 03:08:53;;;;;;;38.33;36.05;;;;;;;;;;5096748;28;20648;-85
2022/04/01 03:11:20;;;;;;;43.33;41.13;;;;;;;;;;5096486;28;20234;-85
2022/04/01 03:13:48;;;;;;;44.53;42.35;;;;;;;;;;5096540;28;20301;-84
2022/04/01 03:16:15;;;;;;;43.90;41.70;;;;;;;;;;5096819;28;20701;-85
2022/04/01 03:18:43;;;;;;;39.75;37.70;;;;;;;;;;5078595;28;20196;-85
2022/04/01 03:21:11;;;;;;;41.05;39.10;;;;;;;;;;5096206;28;20660;-85
2022/04/01 03:23:44;;;;;;;41.08;39.03;;;;;;;;;;5096410;28;20191;-85
2022/04/01 03:26:12;;;;;;;34.70;32.80;;;;;;;;;;5096616;28;20188;-85
2022/04/01 03:28:40;;;;;;;34.72;32.83;;;;;;;;;;5096345;28;20223;-84
2022/04/01 03:31:09;;;;;;;41.83;39.80;;;;;;;;;;5096357;28;20195;-85
2022/04/01 03:33:37;;;;;;;35.97;34.20;;;;;;;;;;5096072;28;20220;-85
2022/04/01 03:36:06;;;;;;;39.05;36.88;;;;;;;;;;5095958;28;20210;-85
2022/04/01 03:38:33;;;;;;;40.10;38.00;;;;;;;;;;5096458;28;20191;-84
2022/04/01 03:41:02;;;;;;;41.35;39.22;;;;;;;;;;5095966;28;20250;-85
2022/04/01 03:43:30;;;;;;;42.13;39.92;;;;;;;;;;5096065;28;20192;-85
2022/04/01 03:45:58;;;;;;;40.13;38.03;;;;;;;;;;5096506;28;20191;-85
2022/04/01 03:48:28;;;;;;;44.13;41.83;;;;;;;;;;5096045;28;20224;-87
2022/04/01 03:50:57;;;;;;;38.67;36.58;;;;;;;;;;5095716;28;20187;-85
2022/04/01 03:53:26;;;;;;;36.17;34.38;;;;;;;;;;5095938;28;20239;-84
2022/04/01 03:55:55;;;;;;;37.85;35.80;;;;;;;;;;5095912;28;20257;-84
2022/04/01 03:58:27;;;;;;;39.38;37.28;;;;;;;;;;5095572;28;20187;-85
2022/04/01 04:00:55;;;;;;;37.10;35.10;;;;;;;;;;5095746;28;20191;-85
2022/04/01 04:03:23;;;;;;;40.08;37.97;;;;;;;;;;5095763;28;20179;-85
2022/04/01 04:05:51;;;;;;;39.75;37.65;;;;;;;;;;5095717;28;20195;-84
2022/04/01 04:08:20;;;;;;;42.50;40.40;;;;;;;;;;5095385;28;20203;-85
2022/04/01 04:10:48;;;;;;;44.45;42.25;;;;;;;;;;5095595;28;20188;-85
2022/04/01 04:13:16;;;;;;;43.13;40.95;;;;;;;;;;5095283;28;20554;-85
2022/04/01 04:15:50;;;;;;;43.05;40.85;;;;;;;;;;5095476;28;20210;-85
2022/04/01 04:18:19;;;;;;;44.30;42.00;;;;;;;;;;5095235;28;20187;-85
2022/04/01 04:20:54;;;;;;;46.00;43.75;;;;;;;;;;5095546;28;20191;-85
2022/04/01 04:23:24;;;;;;;41.08;38.90;;;;;;;;;;5095510;28;20222;-86
2022/04/01 04:25:55;;;;;;;36.92;35.03;;;;;;;;;;5077059;28;20641;-86
2022/04/01 04:28:27;;;;;;;40.35;38.22;;;;;;;;;;5095662;28;20188;-86
2022/04/01 04:31:02;;;;;;;39.08;37.08;;;;;;;;;;5095483;28;20188;-85
2022/04/01 04:33:33;;;;;;;43.58;41.22;;;;;;;;;;5095209;28;20226;-85
2022/04/01 04:36:04;;;;;;;40.17;38.28;;;;;;;;;;5095357;28;20219;-86
2022/04/01 04:38:35;;;;;;;43.58;41.25;;;;;;;;;;5095193;28;20192;-85
2022/04/01 04:41:08;;;;;;;42.50;40.17;;;;;;;;;;5094853;28;20701;-86
2022/04/01 04:43:38;;;;;;;45.08;42.70;;;;;;;;;;5095002;28;20264;-86
2022/04/01 04:46:07;;;;;;;43.60;41.38;;;;;;;;;;5095369;28;20215;-85
2022/04/01 04:48:35;;;;;;;43.00;40.90;;;;;;;;;;5094901;28;20559;-85
2022/04/01 04:51:03;;;;;;;47.55;45.22;;;;;;;;;;5095116;28;20188;-85
2022/04/01 04:53:32;;;;;;;45.60;43.30;;;;;;;;;;5094797;28;20251;-85
2022/04/01 04:56:00;;;;;;;45.05;42.75;;;;;;;;;;5094830;28;20195;-85
2022/04/01 04:58:31;;;;;;;46.33;44.03;;;;;;;;;;5076839;28;20637;-86
2022/04/01 05:01:02;;;;;;;53.50;51.00;;;;;;;;;;5094784;28;20282;-87
2022/04/01 05:03:40;;;;;;;54.83;51.95;;;;;;;;;;5094617;28;20199;-86
2022/04/01 05:06:09;;;;;;;54.90;52.40;;;;;;;;;;5094535;28;20534;-86
2022/04/01 05:08:44;;;;;;;51.60;49.20;;;;;;;;;;5095182;28;20191;-87
2022/04/01 05:11:14;;;;;;;57.47;54.10;;;;;;;;;;5093931;28;20230;-86
2022/04/01 05:13:46;;;;;;;51.55;49.25;;;;;;;;;;5094904;28;20219;-86
2022/04/01 05:16:21;;;;;;;52.30;49.80;;;;;;;;;;5094598;28;20188;-86
2022/04/01 05:18:52;;;;;;;54.92;52.08;;;;;;;;;;5094496;28;20191;-86
2022/04/01 05:21:22;;;;;;;51.92;49.22;;;;;;;;;;5094406;28;20183;-85
2022/04/01 05:23:54;;;;;;;55.35;52.45;;;;;;;;;;5094238;28;20195;-86
2022/04/01 05:26:22;;;;;;;51.75;49.15;;;;;;;;;;5094316;28;20210;-86
2022/04/01 05:28:53;;;;;;;49.22;46.83;;;;;;;;;;5094577;28;20191;-85
2022/04/01 05:31:22;;;;;;;43.40;41.17;;;;;;;;;;5094555;28;20549;-86
2022/04/01 05:34:00;;;;;;;43.97;41.38;;;;;;;;;;5094150;28;20218;-87
2022/04/01 05:36:28;;;;;;;48.05;45.50;;;;;;;;;;5094202;28;20662;-89
2022/04/01 05:38:56;;;;;;;52.15;49.08;;;;;;;;;;5093876;28;20191;-89
2022/04/01 05:41:23;;;;;;;51.15;48.60;;;;;;;;;;5093902;28;21041;-86
2022/04/01 05:43:51;;;;;;;46.58;43.95;;;;;;;;;;5094695;28;20206;-86
2022/04/01 05:46:19;;;;;;;45.38;42.85;;;;;;;;;;5094076;28;20215;-86
2022/04/01 05:48:47;;;;;;;45.17;42.78;;;;;;;;;;5076833;28;20200;-89
2022/04/01 05:51:16;;;;;;;43.08;40.88;;;;;;;;;;5094361;28;20187;-89
2022/04/01 05:53:46;;;;;;;44.00;41.60;;;;;;;;;;5093682;28;20219;-89
2022/04/01 05:56:15;;;;;;;43.60;41.28;;;;;;;;;;5095512;28;20188;-90
2022/04/01 05:58:43;;;;;;;44.47;42.08;;;;;;;;;;5096354;28;20184;-90
2022/04/01 06:01:13;;;;;;;41.40;39.05;;;;;;;;;;5095724;28;20641;-89
2022/04/01 06:03:59;;;;;;;42.45;40.10;;;;;;;;;;5095241;28;20187;-90
2022/04/01 06:06:31;;;;;;;40.42;38.03;;;;;;;;;;5077345;28;20195;-89
2022/04/01 06:09:01;;;;;;;38.65;36.55;;;;;;;;;;5095467;28;20210;-91
2022/04/01 06:11:36;;;;;;;40.60;38.40;;;;;;;;;;5098927;28;20227;-96
2022/04/01 06:14:08;;;;;;;42.60;40.50;;;;;;;;;;5095463;28;20215;-95
2022/04/01 06:16:42;;;;;;;44.55;42.15;;;;;;;;;;5095277;28;20192;-96
2022/04/01 06:19:16;;;;;;;44.58;41.97;;;;;;;;;;5095608;28;20203;-94
2022/04/01 06:21:48;;;;;;;45.15;42.75;;;;;;;;;;5095975;28;20195;-95
2022/04/01 06:24:20;;;;;;;39.95;37.78;;;;;;;;;;5098018;28;20187;-94
2022/04/01 06:26:49;;;;;;;41.30;38.88;;;;;;;;;;5098122;28;20234;-95
2022/04/01 06:29:27;;;;;;;42.70;40.33;;;;;;;;;;5098539;28;20550;-94
2022/04/01 06:31:56;;;;;;;45.17;42.53;;;;;;;;;;5098308;28;20200;-94
2022/04/01 06:34:25;;;;;;;43.88;41.47;;;;;;;;;;5097850;28;20215;-94
2022/04/01 06:36:57;;;;;;;43.97;41.85;;;;;;;;;;5098099;28;20645;-94
2022/04/01 06:39:28;;;;;;;43.58;40.92;;;;;;;;;;5097921;28;20231;-94
2022/04/01 06:41:58;;;;;;;46.08;43.53;;;;;;;;;;5097983;28;20223;-94
2022/04/01 06:44:25;;;;;;;45.60;43.13;;;;;;;;;;5098157;28;20233;-94
2022/04/01 06:46:54;;;;;;;44.97;42.60;;;;;;;;;;5098451;28;20184;-89
2022/04/01 06:49:22;;;;;;;45.08;42.58;;;;;;;;;;5098209;28;20206;-96
2022/04/01 06:51:49;;;;;;;41.40;39.08;;;;;;;;;;5097245;28;20261;-87
2022/04/01 06:54:18;;;;;;;43.38;40.95;;;;;;;;;;5116250;28;20250;-92
2022/04/01 06:56:46;;;;;;;45.17;42.60;;;;;;;;;;5096221;28;20199;-87
2022/04/01 06:59:13;;;;;;;40.95;38.70;;;;;;;;;;5097588;28;20188;-92
2022/04/01 07:01:41;;;;;;;43.80;41.55;;;;;;;;;;5097685;28;20203;-93
2022/04/01 07:04:08;;;;;;;43.55;40.95;;;;;;;;;;5097515;28;20198;-92
2022/04/01 07:06:36;;;;;;;41.13;38.50;;;;;;;;;;5097623;28;20192;-92
2022/04/01 07:09:03;;;;;;;40.90;38.90;;;;;;;;;;5097583;28;20195;-87
2022/04/01 07:11:34;;;;;;;39.25;36.85;;;;;;;;;;5097884;28;20204;-85
2022/04/01 07:14:02;;;;;;;37.15;35.05;;;;;;;;;;5096701;28;20306;-85
2022/04/01 07:16:29;;;;;;;38.65;36.55;;;;;;;;;;5096833;28;20264;-86
2022/04/01 07:18:56;;;;;;;39.67;37.55;;;;;;;;;;5096994;28;20202;-86
2022/04/01 07:21:24;;;;;;;38.22;36.03;;;;;;;;;;5096342;28;20640;-84
2022/04/01 07:23:52;;;;;;;37.53;35.42;;;;;;;;;;5096571;28;20207;-85
2022/04/01 07:26:20;;;;;;;36.78;34.78;;;;;;;;;;5096635;28;20192;-85
2022/04/01 07:28:48;;;;;;;38.75;36.65;;;;;;;;;;5096641;28;20621;-85
2022/04/01 07:34:01;;;;;;;37.63;35.63;;;;;;;;;;5095580;28;20198;-83
2022/04/01 07:36:28;;;;;;;38.22;36.22;;;;;;;;;;5096463;28;20208;-85
2022/04/01 07:38:56;;;;;;;40.45;38.25;;;;;;;;;;5077883;28;20648;-85
2022/04/01 07:41:23;;;;;;;40.63;38.28;;;;;;;;;;5096157;28;20228;-84
2022/04/01 07:43:52;;;;;;;40.60;38.28;;;;;;;;;;5095939;28;20199;-84
2022/04/01 07:46:19;;;;;;;40.33;38.03;;;;;;;;;;5096091;28;20195;-85
2022/04/01 07:48:47;;;;;;;42.13;39.50;;;;;;;;;;5096249;28;20192;-87
2022/04/01 07:51:14;;;;;;;41.88;39.40;;;;;;;;;;5096150;28;20198;-86
2022/04/01 07:53:42;;;;;;;42.53;40.22;;;;;;;;;;5096410;28;20191;-87
2022/04/01 07:56:09;;;;;;;45.00;42.03;;;;;;;;;;5096094;28;20235;-85
2022/04/01 07:58:37;;;;;;;37.70;35.30;;;;;;;;;;5077965;28;20203;-92
2022/04/01 08:01:05;;;;;;;37.80;35.90;;;;;;;;;;5096076;28;20194;-92
2022/04/01 08:03:33;;;;;;;40.05;37.38;;;;;;;;;;5078495;28;20215;-92
2022/04/01 08:06:00;;;;;;;39.80;37.45;;;;;;;;;;5096031;28;20187;-93
2022/04/01 08:08:28;;;;;;;41.58;38.90;;;;;;;;;;5096043;28;20526;-84
2022/04/01 08:10:55;;;;;;;41.33;39.08;;;;;;;;;;5095619;28;20207;-89
2022/04/01 08:13:22;;;;;;;41.05;38.20;;;;;;;;;;5095819;28;20256;-87
2022/04/01 08:15:50;;;;;;;39.17;37.15;;;;;;;;;;5115250;28;20206;-87
2022/04/01 08:18:19;;;;;;;45.90;43.22;;;;;;;;;;5116285;28;20187;-87
2022/04/01 08:20:47;;;;;;;44.45;41.95;;;;;;;;;;5116794;28;20226;-87
2022/04/01 08:23:14;;;;;;;44.33;41.95;;;;;;;;;;5116835;28;20198;-87
2022/04/01 08:25:41;;;;;;;43.95;41.67;;;;;;;;;;5116563;28;20197;-87
2022/04/01 08:28:09;;;;;;;43.08;40.92;;;;;;;;;;5116245;28;20640;-87
2022/04/01 08:30:38;;;;;;;42.53;40.08;;;;;;;;;;5116371;28;20199;-87
2022/04/01 08:33:05;;;;;;;43.08;40.75;;;;;;;;;;5115932;28;20191;-87
2022/04/01 08:35:35;;;;;;;41.92;39.53;;;;;;;;;;5115774;28;20655;-87
2022/04/01 08:38:02;;;;;;;42.53;40.33;;;;;;;;;;5115912;28;20637;-86
2022/04/01 08:40:32;;;;;;;42.30;40.20;;;;;;;;;;5114908;28;20253;-86
2022/04/01 08:43:00;;;;;;;49.75;47.05;;;;;;;;;;5115805;28;20194;-86
2022/04/01 08:45:27;;;;;;;44.10;41.70;;;;;;;;;;5114728;28;20187;-86
2022/04/01 08:47:57;;;;;;;43.92;41.30;;;;;;;;;;5115624;28;20203;-87
2022/04/01 08:50:24;;;;;;;45.40;42.80;;;;;;;;;;5115249;28;20293;-86
2022/04/01 08:52:53;;;;;;;48.22;45.50;;;;;;;;;;5115402;28;20199;-86
2022/04/01 08:55:20;;;;;;;47.58;45.03;;;;;;;;;;5115050;28;20226;-86
2022/04/01 08:57:48;;;;;;;48.83;45.97;;;;;;;;;;5115624;28;20191;-87
2022/04/01 09:00:34;;;;;;;48.22;45.53;;;;;;;;;;5115028;28;20186;-86
2022/04/01 09:03:02;;;;;;;49.63;46.95;;;;;;;;;;5115440;28;20190;-86
2022/04/01 09:05:29;;;;;;;46.03;43.33;;;;;;;;;;5114984;28;20667;-87
2022/04/01 09:08:02;;;;;;;50.63;47.72;;;;;;;;;;5115350;28;20198;-88
2022/04/01 09:10:30;;;;;;;44.08;41.75;;;;;;;;;;5115191;28;20590;-88
2022/04/01 09:12:57;;;;;;;46.00;43.20;;;;;;;;;;5114971;28;20548;-88
2022/04/01 09:15:39;;;;;;;47.53;44.92;;;;;;;;;;5114399;28;20214;-89
2022/04/01 09:18:07;;;;;;;46.38;43.70;;;;;;;;;;5114628;28;20197;-80
2022/04/01 09:20:43;;;;;;;49.85;47.15;;;;;;;;;;5113872;28;20183;-87
2022/04/01 09:23:12;;;;;;;50.08;47.38;;;;;;;;;;5114963;28;20195;-87
2022/04/01 09:25:47;;;;;;;54.25;50.90;;;;;;;;;;5114683;28;20198;-87
2022/04/01 09:28:24;;;;;;;54.00;50.95;;;;;;;;;;5114954;28;20553;-88
2022/04/01 09:30:57;;;;;;;52.90;50.17;;;;;;;;;;5115746;28;20190;-86
2022/04/01 09:33:24;;;;;;;54.58;51.55;;;;;;;;;;5114663;28;20202;-86
2022/04/01 09:35:54;;;;;;;52.28;49.33;;;;;;;;;;5114355;28;20721;-87
2022/04/01 09:38:24;;;;;;;49.83;46.92;;;;;;;;;;5114468;28;20183;-87
2022/04/01 09:40:53;;;;;;;50.90;48.15;;;;;;;;;;5114783;28;20234;-87
2022/04/01 09:43:24;;;;;;;45.55;43.05;;;;;;;;;;5114677;28;20186;-86
2022/04/01 09:45:51;;;;;;;52.08;49.05;;;;;;;;;;5114647;28;20183;-86
2022/04/01 09:48:21;;;;;;;52.63;49.78;;;;;;;;;;5114980;28;20190;-87
2022/04/01 09:50:56;;;;;;;47.75;45.35;;;;;;;;;;5096480;28;20203;-87
2022/04/01 09:53:26;;;;;;;46.28;43.25;;;;;;;;;;5114712;28;20190;-87
2022/04/01 09:55:54;;;;;;;49.50;46.60;;;;;;;;;;5115996;28;20226;-86
2022/04/01 09:58:22;;;;;;;49.75;47.25;;;;;;;;;;5118188;28;20210;-85
2022/04/01 10:00:51;;;;;;;48.90;46.30;;;;;;;;;;5118563;28;20187;-86
2022/04/01 10:03:19;;;;;;;46.38;43.95;;;;;;;;;;5118736;28;20198;-86
2022/04/01 10:05:47;;;;;;;48.17;45.20;;;;;;;;;;5118372;28;20210;-86
2022/04/01 10:08:15;;;;;;;49.08;45.63;;;;;;;;;;5117691;28;20194;-86
2022/04/01 10:10:45;;;;;;;47.85;45.15;;;;;;;;;;5119123;28;20228;-88
2022/04/01 10:13:15;;;;;;;49.58;46.65;;;;;;;;;;5119799;28;20195;-88
2022/04/01 10:15:44;;;;;;;45.97;43.47;;;;;;;;;;5118719;28;20217;-88
2022/04/01 10:18:12;;;;;;;46.95;44.45;;;;;;;;;;5101335;28;20632;-87
2022/04/01 10:20:40;;;;;;;47.08;44.70;;;;;;;;;;5119888;28;20198;-88
2022/04/01 10:23:08;;;;;;;48.42;45.65;;;;;;;;;;5119347;28;20201;-89
2022/04/01 10:25:37;;;;;;;50.88;47.78;;;;;;;;;;5118257;28;20198;-87
2022/04/01 10:28:07;;;;;;;46.80;44.10;;;;;;;;;;5118008;28;20203;-87
2022/04/01 10:30:35;;;;;;;44.50;42.00;;;;;;;;;;5118296;28;20209;-86
2022/04/01 10:33:06;;;;;;;46.50;43.97;;;;;;;;;;5118134;28;20198;-88
2022/04/01 10:35:35;;;;;;;47.67;44.80;;;;;;;;;;5118633;28;20583;-88
2022/04/01 10:38:16;;;;;;;46.85;44.42;;;;;;;;;;5118410;28;20603;-88
2022/04/01 10:40:45;;;;;;;49.47;46.67;;;;;;;;;;5117768;28;20238;-88
2022/04/01 10:43:14;;;;;;;45.67;43.22;;;;;;;;;;5117822;28;20183;-87
2022/04/01 10:45:42;;;;;;;44.63;42.03;;;;;;;;;;5118116;28;20186;-88
2022/04/01 10:53:57;;;;;;;45.67;43.20;;;;;;;;;;5118595;28;20646;-89
2022/04/01 10:56:32;;;;;;;45.58;43.08;;;;;;;;;;5117910;28;20215;-90
2022/04/01 10:59:08;;;;;;;44.60;41.95;;;;;;;;;;5117818;28;20202;-89
2022/04/01 11:01:36;;;;;;;46.13;43.42;;;;;;;;;;5117963;28;20652;-89
2022/04/01 11:04:03;;;;;;;41.13;38.72;;;;;;;;;;5117651;28;20190;-89
2022/04/01 11:06:31;;;;;;;40.15;37.80;;;;;;;;;;5117753;28;20186;-89
2022/04/01 11:08:58;;;;;;;45.30;42.53;;;;;;;;;;5116711;28;20193;-89
2022/04/01 11:11:26;;;;;;;44.50;42.03;;;;;;;;;;5117204;28;20668;-89
2022/04/01 11:14:11;;;;;;;37.58;35.67;;;;;;;;;;5117225;28;20187;-88
2022/04/01 11:16:50;;;;;;;40.13;37.53;;;;;;;;;;5117124;28;20306;-88
2022/04/01 11:19:18;;;;;;;42.20;39.72;;;;;;;;;;5117388;28;20237;-88
2022/04/01 11:21:46;;;;;;;37.20;35.30;;;;;;;;;;5117363;28;20187;-87
2022/04/01 11:24:24;;;;;;;35.10;33.17;;;;;;;;;;5117055;28;20206;-87
2022/04/01 11:26:51;;;;;;;38.65;36.55;;;;;;;;;;5116972;28;20198;-87
2022/04/01 11:29:19;;;;;;;37.03;35.03;;;;;;;;;;5117240;28;20214;-86
2022/04/01 11:31:48;;;;;;;43.55;40.97;;;;;;;;;;5116762;28;20207;-87
2022/04/01 11:34:16;;;;;;;41.10;39.00;;;;;;;;;;5116376;28;20198;-89
2022/04/01 11:36:44;;;;;;;40.45;38.28;;;;;;;;;;5116744;28;20206;-89
2022/04/01 11:39:16;;;;;;;40.80;38.60;;;;;;;;;;5116931;28;20190;-89
2022/04/01 11:41:47;;;;;;;36.92;34.95;;;;;;;;;;5116996;28;20581;-89
2022/04/01 11:44:16;;;;;;;33.60;31.80;;;;;;;;;;5098825;28;20198;-89
2022/04/01 11:46:50;;;;;;;34.33;32.53;;;;;;;;;;5116633;28;20230;-89
2022/04/01 11:49:19;;;;;;;32.38;30.55;;;;;;;;;;5116712;28;20193;-88
2022/04/01 11:51:46;;;;;;;32.10;30.30;;;;;;;;;;5116831;28;20273;-88
2022/04/01 11:54:17;;;;;;;33.08;31.10;;;;;;;;;;5116530;28;20362;-89
2022/04/01 11:56:45;;;;;;;31.55;29.92;;;;;;;;;;5116133;28;20747;-89
2022/04/01 11:59:12;;;;;;;31.73;29.65;;;;;;;;;;5116425;28;20202;-88
2022/04/01 12:04:36;;;;;;;28.17;26.67;;;;;;;;;;5097135;27;1626349;-89
2022/04/01 12:09:57;;;;;;;29.05;27.13;;;;;;;;;;5132245;28;20262;-89
2022/04/01 12:12:24;;;;;;;27.50;25.90;;;;;;;;;;5132506;28;20194;-89
2022/04/01 12:14:52;;;;;;;29.17;26.98;;;;;;;;;;5132259;28;20186;-90
2022/04/01 12:17:20;;;;;;;28.95;26.75;;;;;;;;;;5132483;28;20291;-90
2022/04/01 12:19:49;;;;;;;28.17;26.42;;;;;;;;;;5132408;28;20592;-90
2022/04/01 12:22:16;;;;;;;27.13;25.50;;;;;;;;;;5132252;28;20227;-89
2022/04/01 12:24:44;;;;;;;29.10;27.20;;;;;;;;;;5113855;28;20247;-90
2022/04/01 12:27:13;;;;;;;26.55;24.90;;;;;;;;;;5131912;28;20187;-87
2022/04/01 12:29:45;;;;;;;26.40;24.80;;;;;;;;;;5132333;28;20552;-87
2022/04/01 12:32:18;;;;;;;27.83;26.00;;;;;;;;;;5132128;28;20235;-87
2022/04/01 12:34:47;;;;;;;26.80;25.20;;;;;;;;;;5131958;28;20182;-86
2022/04/01 12:37:17;;;;;;;27.77;26.17;;;;;;;;;;5131711;28;20190;-87
2022/04/01 12:39:45;;;;;;;26.70;25.10;;;;;;;;;;5131603;28;20214;-87
2022/04/01 12:42:14;;;;;;;27.75;25.95;;;;;;;;;;5131934;28;20225;-87
2022/04/01 12:44:44;;;;;;;28.40;26.70;;;;;;;;;;5131680;28;20212;-85
2022/04/01 12:47:13;;;;;;;27.20;25.60;;;;;;;;;;5131481;28;20209;-86
2022/04/01 12:49:43;;;;;;;28.13;26.40;;;;;;;;;;5113293;28;20205;-85
2022/04/01 12:52:15;;;;;;;27.30;25.70;;;;;;;;;;5113305;28;20201;-86
2022/04/01 12:54:45;;;;;;;28.67;26.90;;;;;;;;;;5130929;28;20236;-85
2022/04/01 12:57:12;;;;;;;29.83;27.88;;;;;;;;;;5131577;28;20193;-85
2022/04/01 12:59:41;;;;;;;29.95;28.30;;;;;;;;;;5131516;28;20206;-85
2022/04/01 13:02:09;;;;;;;28.52;26.90;;;;;;;;;;5131973;28;20190;-84
2022/04/01 13:04:42;;;;;;;29.27;27.40;;;;;;;;;;5131226;28;20238;-85
2022/04/01 13:07:10;;;;;;;29.00;27.30;;;;;;;;;;5132177;28;20194;-85
2022/04/01 13:09:49;;;;;;;28.98;27.27;;;;;;;;;;5131513;28;20201;-86
2022/04/01 13:12:17;;;;;;;28.48;26.77;;;;;;;;;;5131859;28;20190;-87
2022/04/01 13:14:44;;;;;;;26.52;25.05;;;;;;;;;;5124713;28;20187;-86
2022/04/01 13:17:13;;;;;;;27.45;25.60;;;;;;;;;;5117666;28;20237;-86
2022/04/01 13:19:42;;;;;;;26.55;25.05;;;;;;;;;;5117355;28;20210;-86
2022/04/01 13:22:10;;;;;;;26.45;24.60;;;;;;;;;;5117479;28;20194;-84
2022/04/01 13:24:38;;;;;;;25.85;24.35;;;;;;;;;;5117720;28;20230;-86
2022/04/01 13:27:08;;;;;;;26.40;24.80;;;;;;;;;;5117944;28;20195;-85
2022/04/01 13:29:36;;;;;;;26.63;24.77;;;;;;;;;;5118616;28;20193;-85
2022/04/01 13:32:03;;;;;;;27.33;25.58;;;;;;;;;;5117109;28;20632;-85
2022/04/01 13:34:31;;;;;;;25.95;24.40;;;;;;;;;;5117106;28;20281;-85
2022/04/01 13:36:59;;;;;;;25.70;24.20;;;;;;;;;;5116711;28;20644;-85
2022/04/01 13:39:28;;;;;;;25.15;23.65;;;;;;;;;;5117109;28;20187;-86
2022/04/01 13:41:56;;;;;;;26.13;24.73;;;;;;;;;;5117012;28;20190;-85
2022/04/01 13:44:25;;;;;;;26.17;24.25;;;;;;;;;;5116632;28;20221;-85
2022/04/01 13:46:53;;;;;;;25.73;24.23;;;;;;;;;;5117133;28;20198;-85
2022/04/01 13:49:21;;;;;;;26.50;24.85;;;;;;;;;;5116505;28;20233;-85
2022/04/01 13:51:48;;;;;;;25.90;24.45;;;;;;;;;;5116700;28;20191;-84
2022/04/01 13:54:15;;;;;;;25.42;23.92;;;;;;;;;;5116281;28;20205;-85
2022/04/01 13:56:45;;;;;;;29.17;27.15;;;;;;;;;;5116519;28;20183;-84
2022/04/01 13:59:12;;;;;;;27.85;26.17;;;;;;;;;;5116420;28;20194;-85
2022/04/01 14:01:41;;;;;;;26.55;24.95;;;;;;;;;;5116316;28;20640;-84
2022/04/01 14:04:09;;;;;;;26.08;24.67;;;;;;;;;;5115811;28;20245;-84
2022/04/01 14:06:36;;;;;;;26.55;25.05;;;;;;;;;;5098525;28;20574;-85
2022/04/01 14:09:05;;;;;;;27.90;26.15;;;;;;;;;;5116173;28;20222;-84
2022/04/01 14:11:34;;;;;;;29.30;27.50;;;;;;;;;;5116318;28;20209;-84
2022/04/01 14:14:02;;;;;;;28.92;26.95;;;;;;;;;;5115554;28;20248;-84
2022/04/01 14:16:29;;;;;;;27.67;26.08;;;;;;;;;;5116203;28;20194;-83
2022/04/01 14:18:59;;;;;;;27.58;25.98;;;;;;;;;;5116184;28;20189;-84
2022/04/01 14:21:27;;;;;;;29.42;27.75;;;;;;;;;;5115911;28;20187;-84
2022/04/01 14:23:54;;;;;;;30.25;28.45;;;;;;;;;;5115526;28;20296;-84
2022/04/01 14:26:21;;;;;;;29.95;28.25;;;;;;;;;;5114860;28;20203;-88
2022/04/01 14:28:49;;;;;;;33.65;31.45;;;;;;;;;;5115951;28;20198;-83
2022/04/01 14:31:16;;;;;;;30.40;28.70;;;;;;;;;;5115365;28;20206;-84
2022/04/01 14:33:44;;;;;;;31.42;29.52;;;;;;;;;;5115469;28;20206;-83
2022/04/01 14:36:13;;;;;;;30.15;28.55;;;;;;;;;;5115678;28;20623;-83
2022/04/01 14:38:41;;;;;;;32.00;30.30;;;;;;;;;;5115128;28;20202;-83
2022/04/01 14:41:08;;;;;;;33.45;31.65;;;;;;;;;;5115634;28;20227;-84
2022/04/01 14:43:36;;;;;;;32.40;30.60;;;;;;;;;;5114932;28;20214;-83